createdAt,value
2022-11-10T07:45:47.046Z,97504.66
2022-11-10T07:46:48.475Z,97524.59
2022-11-10T07:47:53.968Z,97529.44
2022-11-10T07:48:55.374Z,97535.97
2022-11-10T07:49:56.686Z,97507.06
2022-11-10T07:50:58.043Z,97531.66
2022-11-10T07:51:59.370Z,97542.16
2022-11-10T07:53:07.950Z,97544.56
2022-11-10T07:54:09.388Z,97546.47
2022-11-10T07:55:11.114Z,97544.53
2022-11-10T07:56:12.622Z,97547.75
2022-11-10T07:57:14.032Z,97554.75
2022-11-10T07:58:17.355Z,97555.78
2022-11-10T07:59:18.755Z,97549.81
2022-11-10T08:00:20.139Z,97545.78
2022-11-10T08:01:21.503Z,97549.81
2022-11-10T08:02:22.957Z,97552.53
2022-11-10T08:03:24.650Z,97538.50
2022-11-10T08:04:26.174Z,97555.16
2022-11-10T08:05:27.750Z,97556.97
2022-11-10T08:06:32.240Z,97564.13
2022-11-10T08:07:36.462Z,97562.94
2022-11-10T08:08:37.937Z,97555.34
2022-11-10T08:09:39.298Z,97567.72
2022-11-10T08:10:41.626Z,97561.78
2022-11-10T08:11:42.962Z,97547.63
2022-11-10T08:12:44.280Z,97552.44
2022-11-10T08:13:45.615Z,97542.47
2022-11-10T08:14:46.999Z,97560.84
2022-11-10T08:15:48.573Z,97559.63
2022-11-10T08:16:50.517Z,97566.81
2022-11-10T08:17:51.997Z,97560.69
2022-11-10T08:18:53.531Z,97565.00
2022-11-10T08:19:54.900Z,97562.06
2022-11-10T08:20:56.304Z,97564.78
2022-11-10T08:21:57.648Z,97566.31
2022-11-10T08:23:05.922Z,97558.16
2022-11-10T08:24:10.828Z,97571.00
2022-11-10T08:25:12.346Z,97570.72
2022-11-10T08:26:16.571Z,97565.16
2022-11-10T08:27:17.900Z,97567.72
2022-11-10T08:28:19.886Z,97577.25
2022-11-10T08:29:21.329Z,97563.97
2022-11-10T08:30:22.769Z,97584.34
2022-11-10T08:31:24.529Z,97573.94
2022-11-10T08:32:26.021Z,97565.69
2022-11-10T08:33:27.367Z,97568.25
2022-11-10T08:34:28.736Z,97567.88
2022-11-10T08:35:31.353Z,97579.22
2022-11-10T08:36:32.812Z,97565.22
2022-11-10T08:37:34.223Z,97575.50
2022-11-10T08:38:35.807Z,97589.41
2022-11-10T08:39:39.570Z,97575.72
2022-11-10T08:40:41.844Z,97572.47
2022-11-10T08:41:43.238Z,97579.91
2022-11-10T08:42:44.675Z,97580.75
2022-11-10T08:43:45.998Z,97593.38
2022-11-10T08:44:47.444Z,97596.41
2022-11-10T08:45:48.947Z,97571.09
2022-11-10T08:46:50.953Z,97580.00
2022-11-10T08:48:03.962Z,97596.78
2022-11-10T08:49:05.378Z,97585.81
2022-11-10T08:50:07.890Z,97595.22
2022-11-10T08:51:09.340Z,97598.44
2022-11-10T08:52:11.301Z,97592.22
2022-11-10T08:53:15.098Z,97595.22
2022-11-10T08:54:16.500Z,97604.16
2022-11-10T08:55:19.997Z,97602.66
2022-11-10T08:56:21.572Z,97606.47
2022-11-10T08:57:23.081Z,97601.16
2022-11-10T08:58:24.532Z,97595.50
2022-11-10T08:59:26.125Z,97597.94
2022-11-10T09:00:28.650Z,97616.56
2022-11-10T09:01:30.116Z,97613.44
2022-11-10T09:02:31.979Z,97613.41
2022-11-10T09:03:33.301Z,97610.88
2022-11-10T09:04:34.707Z,97620.13
2022-11-10T09:05:36.736Z,97609.84
2022-11-10T09:06:38.144Z,97611.84
2022-11-10T09:07:47.831Z,97617.75
2022-11-10T09:08:49.374Z,97616.50
2022-11-10T09:10:06.049Z,97625.78
2022-11-10T09:11:08.376Z,97618.34
2022-11-10T09:12:09.705Z,97602.63
2022-11-10T09:13:12.964Z,97621.50
2022-11-10T09:14:14.756Z,97612.75
2022-11-10T09:15:16.167Z,97615.97
2022-11-10T09:16:17.693Z,97600.88
2022-11-10T09:17:19.037Z,97615.94
2022-11-10T09:18:20.359Z,97622.19
2022-11-10T09:19:21.697Z,97622.81
2022-11-10T09:20:23.155Z,97613.72
2022-11-10T09:21:24.511Z,97623.16
2022-11-10T09:22:26.005Z,97616.16
2022-11-10T09:23:28.084Z,97625.00
2022-11-10T09:24:31.513Z,97623.72
2022-11-10T09:25:33.448Z,97635.59
2022-11-10T09:26:34.885Z,97622.97
2022-11-10T09:27:39.174Z,97631.31
2022-11-10T09:28:40.530Z,97637.81
2022-11-10T09:29:42.046Z,97635.59
2022-11-10T09:30:46.744Z,97640.69
2022-11-10T09:31:48.419Z,97624.13
2022-11-10T09:32:57.632Z,97643.75
2022-11-10T09:33:59.225Z,97641.94
2022-11-10T09:35:01.634Z,97641.50
2022-11-10T09:36:03.057Z,97649.03
2022-11-10T09:37:04.543Z,97639.13
2022-11-10T09:38:06.632Z,97635.94
2022-11-10T09:39:08.005Z,97644.06
2022-11-10T09:40:23.326Z,97648.47
2022-11-10T09:41:24.806Z,97657.75
2022-11-10T09:42:41.267Z,97653.44
2022-11-10T09:43:47.502Z,97655.97
2022-11-10T09:45:00.027Z,97663.13
2022-11-10T09:46:06.267Z,97661.91
2022-11-10T09:47:50.591Z,97674.16
2022-11-10T09:48:56.188Z,97677.72
2022-11-10T09:50:00.884Z,97676.13
2022-11-10T09:51:07.001Z,97665.75
2022-11-10T09:52:12.390Z,97676.69
2022-11-10T09:53:21.548Z,97677.50
2022-11-10T09:54:47.741Z,97682.25
2022-11-10T09:55:52.521Z,97673.41
2022-11-10T09:57:00.170Z,97672.50
2022-11-10T09:58:02.510Z,97679.34
2022-11-10T09:59:19.344Z,97678.06
2022-11-10T10:00:20.982Z,97676.91
2022-11-10T10:01:29.111Z,97673.59
2022-11-10T10:02:48.091Z,97680.06
2022-11-10T10:04:13.738Z,97665.69
2022-11-10T10:05:29.269Z,97687.19
2022-11-10T10:06:57.157Z,97679.66
2022-11-10T10:08:05.805Z,97669.09
2022-11-10T10:09:07.086Z,97681.00
2022-11-10T10:10:25.930Z,97676.31
2022-11-10T10:11:36.398Z,97680.75
2022-11-10T10:13:10.116Z,97686.06
2022-11-10T10:14:31.088Z,97678.28
2022-11-10T10:15:42.213Z,97678.47
2022-11-10T10:16:49.488Z,97676.97
2022-11-10T10:18:06.575Z,97679.75
2022-11-10T10:19:46.996Z,97682.47
2022-11-10T10:20:57.545Z,97685.09
2022-11-10T10:22:20.320Z,97686.50
2022-11-10T10:24:07.064Z,97681.16
2022-11-10T10:25:02.080Z,97684.34
2022-11-10T10:26:03.894Z,97681.19
2022-11-10T10:27:10.251Z,97687.00
2022-11-10T10:28:40.085Z,97679.00
2022-11-10T10:29:46.943Z,97683.34
2022-11-10T10:30:48.620Z,97685.56
2022-11-10T10:31:51.788Z,97670.25
2022-11-10T10:33:00.128Z,97692.06
2022-11-10T10:34:02.508Z,97666.09
2022-11-10T10:35:04.157Z,97687.75
2022-11-10T10:36:14.385Z,97674.06
2022-11-10T10:37:35.583Z,97691.50
2022-11-10T10:38:40.068Z,97686.00
2022-11-10T10:39:46.374Z,97673.50
2022-11-10T10:40:50.600Z,97654.41
2022-11-10T10:41:52.350Z,97666.97
2022-11-10T10:42:54.508Z,97662.00
2022-11-10T10:43:58.221Z,97677.53
2022-11-10T10:45:16.597Z,97678.19
2022-11-10T10:46:20.251Z,97674.78
2022-11-10T10:47:36.888Z,97671.25
2022-11-10T10:48:38.221Z,97663.91
2022-11-10T10:49:42.462Z,97668.53
2022-11-10T10:50:43.909Z,97681.34
2022-11-10T10:51:45.712Z,97661.31
2022-11-10T10:53:07.873Z,97653.88
2022-11-10T10:54:36.268Z,97675.94
2022-11-10T10:55:41.366Z,97666.56
2022-11-10T10:56:42.702Z,97674.34
2022-11-10T10:57:51.905Z,97666.47
2022-11-10T10:59:00.315Z,97669.44
2022-11-10T11:00:21.495Z,97670.00
2022-11-10T11:01:30.666Z,97667.31
2022-11-10T11:02:35.572Z,97663.63
2022-11-10T11:03:45.465Z,97669.97
2022-11-10T11:04:46.789Z,97663.38
2022-11-10T11:06:07.100Z,97672.63
2022-11-10T11:07:24.408Z,97658.09
2022-11-10T11:08:26.955Z,97680.97
2022-11-10T11:09:38.223Z,97681.69
2022-11-10T11:10:46.008Z,97692.03
2022-11-10T11:12:10.384Z,97692.66
2022-11-10T11:13:21.655Z,97686.16
2022-11-10T11:14:26.643Z,97690.72
2022-11-10T11:15:30.327Z,97683.88
2022-11-10T11:16:56.349Z,97664.25
2022-11-10T11:18:03.692Z,97674.66
2022-11-10T11:19:05.146Z,97668.69
2022-11-10T11:20:14.421Z,97676.44
2022-11-10T11:21:37.238Z,97670.47
2022-11-10T11:22:49.085Z,97675.44
2022-11-10T11:24:12.128Z,97667.63
2022-11-10T11:25:33.305Z,97676.25
2022-11-10T11:26:51.416Z,97678.34
2022-11-10T11:28:11.553Z,97678.63
2022-11-10T11:29:55.732Z,97675.06
2022-11-10T11:31:06.277Z,97679.19
2022-11-10T11:32:33.618Z,97682.19
2022-11-10T11:33:42.460Z,97669.59
2022-11-10T11:35:06.981Z,97657.34
2022-11-10T11:36:17.871Z,97673.59
2022-11-10T11:37:46.703Z,97660.44
2022-11-10T11:38:58.642Z,97644.97
2022-11-10T11:40:24.098Z,97673.69
2022-11-10T11:41:31.541Z,97678.25
2022-11-10T11:42:41.977Z,97676.66
2022-11-10T11:43:55.570Z,97671.06
2022-11-10T11:45:18.857Z,97669.66
2022-11-10T11:46:38.568Z,97677.28
2022-11-10T11:47:52.860Z,97679.84
2022-11-10T11:49:25.407Z,97679.22
2022-11-10T11:50:35.889Z,97676.00
2022-11-10T11:51:49.629Z,97680.63
2022-11-10T11:53:12.833Z,97678.22
2022-11-10T11:54:45.461Z,97679.50
2022-11-10T11:56:21.200Z,97678.47
2022-11-10T11:57:58.993Z,97675.94
2022-11-10T11:59:10.024Z,97660.75
2022-11-10T12:00:17.306Z,97679.97
2022-11-10T12:01:55.531Z,97678.69
2022-11-10T12:03:33.543Z,97678.59
2022-11-10T12:04:49.903Z,97671.81
2022-11-10T12:06:29.204Z,97675.28
2022-11-10T12:07:59.873Z,97621.22
2022-11-10T12:09:11.955Z,97671.72
2022-11-10T12:10:37.271Z,97666.31
2022-11-10T12:12:09.373Z,97667.34
2022-11-10T12:13:37.590Z,97679.13
2022-11-10T12:14:56.914Z,97671.66
2022-11-10T12:15:58.185Z,97677.25
2022-11-10T12:17:33.442Z,97678.63
2022-11-10T12:18:50.967Z,97670.41
2022-11-10T12:20:09.275Z,97668.16
2022-11-10T12:21:23.889Z,97673.47
2022-11-10T12:22:33.980Z,97671.66
2022-11-10T12:23:38.083Z,97676.84
2022-11-10T12:25:07.312Z,97676.44
2022-11-10T12:26:52.319Z,97665.94
2022-11-10T12:28:09.526Z,97654.13
2022-11-10T12:29:48.871Z,97670.66
2022-11-10T12:31:00.560Z,97668.41
2022-11-10T12:32:21.498Z,97668.06
2022-11-10T12:33:44.359Z,97664.88
2022-11-10T12:35:05.687Z,97665.75
2022-11-10T12:36:15.759Z,97667.50
2022-11-10T12:37:28.495Z,97658.06
2022-11-10T12:38:41.960Z,97661.69
2022-11-10T12:39:53.741Z,97655.72
2022-11-10T12:41:07.453Z,97645.75
2022-11-10T12:42:18.189Z,97655.09
2022-11-10T12:43:35.061Z,97644.72
2022-11-10T12:44:58.159Z,97656.22
2022-11-10T12:46:04.756Z,97652.09
2022-11-10T12:47:14.836Z,97636.72
2022-11-10T12:48:17.560Z,97637.75
2022-11-10T12:49:33.904Z,97650.75
2022-11-10T12:50:58.389Z,97651.47
2022-11-10T12:52:17.755Z,97651.72
2022-11-10T12:53:26.189Z,97649.13
2022-11-10T12:54:28.659Z,97652.66
2022-11-10T12:55:44.515Z,97669.00
2022-11-10T12:56:51.892Z,97664.69
2022-11-10T12:57:53.570Z,97669.53
2022-11-10T12:59:23.392Z,97668.69
2022-11-10T13:00:31.703Z,97665.91
2022-11-10T13:01:33.352Z,97677.22
2022-11-10T13:02:46.889Z,97673.78
2022-11-10T13:03:58.419Z,97668.25
2022-11-10T13:05:10.380Z,97664.25
2022-11-10T13:06:28.708Z,97674.41
2022-11-10T13:07:30.145Z,97670.38
2022-11-10T13:08:44.979Z,97662.09
2022-11-10T13:09:46.423Z,97664.78
2022-11-10T13:10:52.704Z,97672.41
2022-11-10T13:12:04.582Z,97678.63
2022-11-10T13:13:06.050Z,97677.31
2022-11-10T13:14:27.823Z,97681.63
2022-11-10T13:15:37.915Z,97680.31
2022-11-10T13:16:40.430Z,97684.50
2022-11-10T13:17:41.713Z,97684.44
2022-11-10T13:18:43.026Z,97690.59
2022-11-10T13:19:53.505Z,97686.09
2022-11-10T13:20:55.725Z,97678.53
2022-11-10T13:22:00.614Z,97689.97
2022-11-10T13:23:21.277Z,97692.25
2022-11-10T13:24:36.610Z,97679.44
2022-11-10T13:25:42.282Z,97688.13
2022-11-10T13:26:43.772Z,97683.75
2022-11-10T13:27:54.071Z,97676.50
2022-11-10T13:28:57.858Z,97690.16
2022-11-10T13:30:00.114Z,97667.88
2022-11-10T13:31:30.323Z,97684.56
2022-11-10T13:32:35.402Z,97680.16
2022-11-10T13:33:38.293Z,97671.06
2022-11-10T13:34:44.235Z,97675.69
2022-11-10T13:35:55.637Z,97677.56
2022-11-10T13:36:57.893Z,97665.22
2022-11-10T13:37:59.369Z,97682.38
2022-11-10T13:39:26.919Z,97674.44
2022-11-10T13:40:31.539Z,97666.88
2022-11-10T13:41:34.685Z,97687.09
2022-11-10T13:42:36.228Z,97688.25
2022-11-10T13:43:48.869Z,97684.38
2022-11-10T13:44:52.341Z,97690.16
2022-11-10T13:46:02.976Z,97686.78
2022-11-10T13:47:39.706Z,97692.50
2022-11-10T13:49:19.647Z,97688.50
2022-11-10T13:50:30.415Z,97681.44
2022-11-10T13:51:41.528Z,97692.50
2022-11-10T13:53:05.684Z,97694.78
2022-11-10T13:54:30.088Z,97688.81
2022-11-10T13:55:47.253Z,97703.16
2022-11-10T13:57:04.615Z,97701.94
2022-11-10T13:58:14.512Z,97677.09
2022-11-10T13:59:22.715Z,97691.22
2022-11-10T14:00:27.762Z,97702.78
2022-11-10T14:01:30.285Z,97703.84
2022-11-10T14:02:34.794Z,97699.28
2022-11-10T14:04:05.380Z,97697.66
2022-11-10T14:05:09.294Z,97699.31
2022-11-10T14:06:15.737Z,97699.44
2022-11-10T14:07:18.964Z,97697.97
2022-11-10T14:08:25.798Z,97686.69
2022-11-10T14:09:42.096Z,97672.72
2022-11-10T14:10:58.766Z,97688.16
2022-11-10T14:12:13.308Z,97670.69
2022-11-10T14:13:23.716Z,97691.88
2022-11-10T14:14:35.971Z,97662.13
2022-11-10T14:15:46.092Z,97689.44
2022-11-10T14:16:47.725Z,97695.72
2022-11-10T14:17:51.831Z,97708.09
2022-11-10T14:18:58.896Z,97714.88
2022-11-10T14:20:01.243Z,97691.53
2022-11-10T14:21:03.565Z,97705.19
2022-11-10T14:22:21.668Z,97716.09
2022-11-10T14:23:31.331Z,97705.38
2022-11-10T14:24:39.167Z,97712.75
2022-11-10T14:25:43.971Z,97695.56
2022-11-10T14:26:52.016Z,97693.75
2022-11-10T14:27:57.913Z,97703.69
2022-11-10T14:29:20.250Z,97700.94
2022-11-10T14:30:21.714Z,97703.91
2022-11-10T14:31:25.320Z,97707.53
2022-11-10T14:32:26.847Z,97698.91
2022-11-10T14:33:28.225Z,97709.88
2022-11-10T14:34:31.789Z,97699.78
2022-11-10T14:35:44.635Z,97705.66
2022-11-10T14:36:59.013Z,97707.88
2022-11-10T14:38:02.757Z,97702.97
2022-11-10T14:39:06.664Z,97701.47
2022-11-10T14:40:18.963Z,97712.28
2022-11-10T14:41:22.765Z,97689.19
2022-11-10T14:42:26.721Z,97719.22
2022-11-10T14:43:29.935Z,97718.56
2022-11-10T14:44:33.064Z,97719.19
2022-11-10T14:45:34.566Z,97721.84
2022-11-10T14:46:38.240Z,97721.22
2022-11-10T14:47:39.802Z,97727.41
2022-11-10T14:48:41.249Z,97700.88
2022-11-10T14:49:43.855Z,97726.28
2022-11-10T14:50:45.404Z,97720.81
2022-11-10T14:51:46.990Z,97731.25
2022-11-10T14:52:53.898Z,97734.13
2022-11-10T14:53:57.272Z,97733.56
2022-11-10T14:54:59.255Z,97727.63
2022-11-10T14:56:03.604Z,97735.22
2022-11-10T14:57:06.054Z,97738.81
2022-11-10T14:58:15.255Z,97736.41
2022-11-10T14:59:17.852Z,97738.66
2022-11-10T15:00:25.219Z,97740.81
2022-11-10T15:01:33.822Z,97746.78
2022-11-10T15:02:36.064Z,97717.06
2022-11-10T15:03:42.371Z,97743.81
2022-11-10T15:04:46.178Z,97740.25
2022-11-10T15:05:48.850Z,97745.16
2022-11-10T15:06:53.263Z,97728.91
2022-11-10T15:07:56.513Z,97723.44
2022-11-10T15:09:01.736Z,97742.63
2022-11-10T15:10:14.536Z,97745.03
2022-11-10T15:11:47.087Z,97747.13
2022-11-10T15:13:19.791Z,97749.78
2022-11-10T15:14:49.561Z,97747.66
2022-11-10T15:15:53.678Z,97735.59
2022-11-10T15:17:06.152Z,97745.44
2022-11-10T15:18:24.622Z,97756.03
2022-11-10T15:19:31.455Z,97754.81
2022-11-10T15:20:41.451Z,97744.09
2022-11-10T15:21:42.805Z,97763.06
2022-11-10T15:22:44.456Z,97765.25
2022-11-10T15:23:52.329Z,97743.16
2022-11-10T15:24:53.715Z,97772.03
2022-11-10T15:25:55.381Z,97763.72
2022-11-10T15:26:57.018Z,97774.53
2022-11-10T15:28:05.548Z,97767.31
2022-11-10T15:29:21.478Z,97774.72
2022-11-10T15:30:24.707Z,97773.88
2022-11-10T15:31:31.816Z,97785.63
2022-11-10T15:32:42.468Z,97779.75
2022-11-10T15:33:51.171Z,97777.66
2022-11-10T15:34:53.165Z,97776.75
2022-11-10T15:35:56.311Z,97783.84
2022-11-10T15:37:27.392Z,97790.91
2022-11-10T15:38:32.259Z,97786.78
2022-11-10T15:39:33.809Z,97779.88
2022-11-10T15:40:43.068Z,97787.34
2022-11-10T15:41:48.924Z,97762.97
2022-11-10T15:43:27.556Z,97785.63
2022-11-10T15:44:29.125Z,97785.94
2022-11-10T15:45:30.459Z,97783.53
2022-11-10T15:46:31.842Z,97786.53
2022-11-10T15:47:33.514Z,97779.97
2022-11-10T15:48:41.719Z,97783.94
2022-11-10T15:49:43.883Z,97786.16
2022-11-10T15:50:51.011Z,97789.28
2022-11-10T15:51:57.515Z,97784.25
2022-11-10T15:52:59.216Z,97784.41
2022-11-10T15:54:00.559Z,97791.50
2022-11-10T15:55:01.897Z,97774.78
2022-11-10T15:56:03.480Z,97793.69
2022-11-10T15:57:10.685Z,97784.09
2022-11-10T15:58:20.643Z,97790.38
2022-11-10T15:59:22.350Z,97788.84
2022-11-10T16:00:24.135Z,97785.72
2022-11-10T16:01:25.774Z,97799.78
2022-11-10T16:02:27.209Z,97802.63
2022-11-10T16:03:31.453Z,97804.53
2022-11-10T16:04:32.780Z,97803.91
2022-11-10T16:05:34.133Z,97802.22
2022-11-10T16:06:35.554Z,97791.31
2022-11-10T16:07:37.146Z,97787.81
2022-11-10T16:08:38.650Z,97796.38
2022-11-10T16:09:40.101Z,97791.66
2022-11-10T16:10:46.932Z,97773.59
2022-11-10T16:11:48.397Z,97793.56
2022-11-10T16:12:49.838Z,97797.94
2022-11-10T16:13:52.805Z,97797.28
2022-11-10T16:14:55.039Z,97801.00
2022-11-10T16:15:59.339Z,97804.63
2022-11-10T16:17:03.626Z,97781.69
2022-11-10T16:18:11.839Z,97810.31
2022-11-10T16:19:13.276Z,97779.25
2022-11-10T16:20:15.127Z,97791.75
2022-11-10T16:21:19.922Z,97803.06
2022-11-10T16:22:21.307Z,97810.06
2022-11-10T16:23:23.818Z,97806.75
2022-11-10T16:24:25.152Z,97815.44
2022-11-10T16:25:27.927Z,97795.91
2022-11-10T16:26:30.389Z,97814.59
2022-11-10T16:27:31.872Z,97812.22
2022-11-10T16:28:34.248Z,97819.47
2022-11-10T16:29:36.635Z,97810.22
2022-11-10T16:30:38.194Z,97822.13
2022-11-10T16:31:39.544Z,97817.84
2022-11-10T16:32:40.909Z,97809.44
2022-11-10T16:33:42.366Z,97826.94
2022-11-10T16:34:43.752Z,97816.69
2022-11-10T16:35:45.281Z,97819.38
2022-11-10T16:36:47.522Z,97822.03
2022-11-10T16:37:49.139Z,97831.66
2022-11-10T16:38:53.062Z,97833.38
2022-11-10T16:39:54.460Z,97841.31
2022-11-10T16:41:00.913Z,97801.81
2022-11-10T16:42:02.373Z,97831.22
2022-11-10T16:43:03.804Z,97834.03
2022-11-10T16:44:05.987Z,97837.53
2022-11-10T16:45:20.657Z,97834.38
2022-11-10T16:46:24.590Z,97837.81
2022-11-10T16:47:27.618Z,97820.88
2022-11-10T16:48:32.592Z,97849.16
2022-11-10T16:49:35.711Z,97839.75
2022-11-10T16:50:41.102Z,97840.75
2022-11-10T16:51:48.594Z,97820.28
2022-11-10T16:52:50.562Z,97838.41
2022-11-10T16:53:53.545Z,97838.69
2022-11-10T16:54:54.944Z,97836.81
2022-11-10T16:56:01.026Z,97838.59
2022-11-10T16:57:02.550Z,97839.38
2022-11-10T16:58:03.940Z,97833.38
2022-11-10T16:59:05.320Z,97842.03
2022-11-10T17:00:07.360Z,97831.72
2022-11-10T17:01:21.271Z,97850.00
2022-11-10T17:02:35.281Z,97852.53
2022-11-10T17:03:40.179Z,97836.97
2022-11-10T17:04:41.526Z,97818.03
2022-11-10T17:05:43.360Z,97849.03
2022-11-10T17:06:45.063Z,97832.91
2022-11-10T17:07:47.138Z,97847.66
2022-11-10T17:08:51.261Z,97859.13
2022-11-10T17:09:52.810Z,97853.94
2022-11-10T17:10:56.774Z,97823.00
2022-11-10T17:11:58.174Z,97815.34
2022-11-10T17:12:59.515Z,97854.22
2022-11-10T17:14:00.850Z,97855.22
2022-11-10T17:15:02.299Z,97849.34
2022-11-10T17:16:07.710Z,97849.34
2022-11-10T17:17:18.372Z,97855.53
2022-11-10T17:18:26.907Z,97826.19
2022-11-10T17:19:28.304Z,97851.00
2022-11-10T17:20:34.422Z,97844.97
2022-11-10T17:21:36.510Z,97820.13
2022-11-10T17:22:38.050Z,97819.31
2022-11-10T17:23:43.278Z,97835.63
2022-11-10T17:24:47.790Z,97827.22
2022-11-10T17:25:50.461Z,97809.22
2022-11-10T17:26:51.860Z,97819.50
2022-11-10T17:27:53.859Z,97841.97
2022-11-10T17:28:59.536Z,97851.56
2022-11-10T17:30:01.196Z,97844.69
2022-11-10T17:31:03.254Z,97844.75
2022-11-10T17:32:04.917Z,97851.66
2022-11-10T17:33:06.939Z,97834.41
2022-11-10T17:34:11.342Z,97843.22
2022-11-10T17:35:13.045Z,97857.78
2022-11-10T17:36:18.632Z,97858.00
2022-11-10T17:37:20.045Z,97863.19
2022-11-10T17:38:24.410Z,97854.69
2022-11-10T17:39:29.659Z,97871.97
2022-11-10T17:40:31.180Z,97871.31
2022-11-10T17:41:33.982Z,97864.34
2022-11-10T17:42:35.352Z,97870.38
2022-11-10T17:43:38.567Z,97872.25
2022-11-10T17:44:41.796Z,97861.06
2022-11-10T17:45:43.534Z,97874.84
2022-11-10T17:46:45.058Z,97856.06
2022-11-10T17:47:48.253Z,97845.84
2022-11-10T17:48:49.936Z,97869.19
2022-11-10T17:49:51.394Z,97869.50
2022-11-10T17:50:52.736Z,97873.00
2022-11-10T17:51:54.111Z,97868.59
2022-11-10T17:52:55.563Z,97847.13
2022-11-10T17:53:58.834Z,97857.50
2022-11-10T17:55:00.216Z,97878.88
2022-11-10T17:56:01.545Z,97877.22
2022-11-10T17:57:04.422Z,97861.75
2022-11-10T17:58:05.878Z,97873.81
2022-11-10T17:59:07.432Z,97855.00
2022-11-10T18:00:09.693Z,97867.88
2022-11-10T18:01:18.005Z,97876.59
2022-11-10T18:02:19.395Z,97877.38
2022-11-10T18:03:22.485Z,97877.44
2022-11-10T18:04:24.101Z,97868.81
2022-11-10T18:05:25.510Z,97870.63
2022-11-10T18:06:26.918Z,97849.19
2022-11-10T18:07:28.248Z,97887.13
2022-11-10T18:08:29.570Z,97884.41
2022-11-10T18:09:30.901Z,97887.84
2022-11-10T18:10:32.252Z,97887.94
2022-11-10T18:11:37.196Z,97891.38
2022-11-10T18:12:38.754Z,97874.13
2022-11-10T18:13:41.844Z,97885.34
2022-11-10T18:14:43.164Z,97873.38
2022-11-10T18:15:46.302Z,97870.00
2022-11-10T18:16:47.768Z,97887.31
2022-11-10T18:17:49.120Z,97877.97
2022-11-10T18:18:50.512Z,97890.13
2022-11-10T18:19:51.897Z,97885.84
2022-11-10T18:20:56.435Z,97881.53
2022-11-10T18:21:57.812Z,97889.22
2022-11-10T18:22:59.695Z,97884.00
2022-11-10T18:24:01.982Z,97873.06
2022-11-10T18:25:04.161Z,97883.50
2022-11-10T18:26:11.835Z,97891.22
2022-11-10T18:27:13.157Z,97874.03
2022-11-10T18:28:14.791Z,97892.13
2022-11-10T18:29:16.147Z,97901.63
2022-11-10T18:30:18.995Z,97885.25
2022-11-10T18:31:20.585Z,97908.59
2022-11-10T18:32:23.043Z,97907.81
2022-11-10T18:33:24.663Z,97916.47
2022-11-10T18:34:26.336Z,97900.09
2022-11-10T18:35:31.923Z,97905.22
2022-11-10T18:36:33.332Z,97903.38
2022-11-10T18:37:38.771Z,97884.72
2022-11-10T18:38:40.489Z,97904.66
2022-11-10T18:39:42.313Z,97894.44
2022-11-10T18:40:43.656Z,97897.81
2022-11-10T18:41:52.197Z,97902.00
2022-11-10T18:42:58.553Z,97896.13
2022-11-10T18:44:02.086Z,97912.41
2022-11-10T18:45:03.989Z,97884.97
2022-11-10T18:46:05.473Z,97903.03
2022-11-10T18:47:10.707Z,97916.81
2022-11-10T18:48:12.045Z,97916.00
2022-11-10T18:49:13.885Z,97910.81
2022-11-10T18:50:15.348Z,97902.25
2022-11-10T18:51:16.767Z,97905.81
2022-11-10T18:52:18.300Z,97894.72
2022-11-10T18:53:19.754Z,97889.47
2022-11-10T18:54:21.364Z,97918.78
2022-11-10T18:55:22.737Z,97914.47
2022-11-10T18:56:25.723Z,97920.63
2022-11-10T18:57:27.120Z,97901.69
2022-11-10T18:58:28.496Z,97917.25
